createdAt,value
2023-07-18T00:00:37.159Z,14.23
2023-07-18T00:01:38.921Z,14.31
2023-07-18T00:02:40.833Z,14.22
2023-07-18T00:03:42.324Z,14.20
2023-07-18T00:04:43.914Z,14.09
2023-07-18T00:05:45.351Z,14.04
2023-07-18T00:06:46.922Z,13.98
2023-07-18T00:07:48.435Z,13.97
2023-07-18T00:08:49.913Z,13.94
2023-07-18T00:09:51.666Z,13.89
2023-07-18T00:10:53.089Z,13.81
2023-07-18T00:11:54.848Z,13.73
2023-07-18T00:12:56.504Z,13.78
2023-07-18T00:13:57.968Z,13.80
2023-07-18T00:15:00.998Z,13.75
2023-07-18T00:16:02.598Z,13.78
2023-07-18T00:17:04.212Z,13.75
2023-07-18T00:18:05.920Z,13.78
2023-07-18T00:19:07.429Z,13.70
2023-07-18T00:20:19.317Z,13.66
2023-07-18T00:21:21.047Z,13.69
2023-07-18T00:22:23.014Z,13.60
2023-07-18T00:23:24.551Z,13.55
2023-07-18T00:24:26.094Z,13.54
2023-07-18T00:25:27.695Z,13.53
2023-07-18T00:26:29.231Z,13.47
2023-07-18T00:27:30.708Z,13.46
2023-07-18T00:28:32.223Z,13.42
2023-07-18T00:29:33.659Z,13.48
2023-07-18T00:30:35.151Z,13.49
2023-07-18T00:31:37.317Z,13.48
2023-07-18T00:32:39.842Z,13.51
2023-07-18T00:33:41.884Z,13.44
2023-07-18T00:34:45.424Z,13.47
2023-07-18T00:35:47.313Z,13.44
2023-07-18T00:36:48.843Z,13.41
2023-07-18T00:37:50.880Z,13.38
2023-07-18T00:38:53.551Z,13.39
2023-07-18T00:39:55.040Z,13.34
2023-07-18T00:40:56.527Z,13.34
2023-07-18T00:41:58.213Z,13.34
2023-07-18T00:42:59.714Z,13.33
2023-07-18T00:44:01.190Z,13.33
2023-07-18T00:45:02.735Z,13.30
2023-07-18T00:46:05.702Z,13.25
2023-07-18T00:47:08.667Z,13.21
2023-07-18T00:48:10.608Z,13.20
2023-07-18T00:49:12.625Z,13.17
2023-07-18T00:50:18.091Z,13.18
2023-07-18T00:51:20.060Z,13.13
2023-07-18T00:52:22.832Z,13.15
2023-07-18T00:53:24.620Z,13.11
2023-07-18T00:54:27.636Z,13.11
2023-07-18T00:55:29.347Z,13.14
2023-07-18T00:56:31.373Z,13.10
2023-07-18T00:57:33.247Z,13.12
2023-07-18T00:58:35.833Z,13.13
2023-07-18T00:59:38.970Z,13.13
2023-07-18T01:00:40.428Z,13.08
2023-07-18T01:01:42.227Z,13.06
2023-07-18T01:02:45.919Z,13.06
2023-07-18T01:03:47.586Z,13.00
2023-07-18T01:04:49.044Z,12.92
2023-07-18T01:05:50.581Z,12.98
2023-07-18T01:06:53.882Z,12.92
2023-07-18T01:07:55.394Z,12.90
2023-07-18T01:08:56.915Z,12.87
2023-07-18T01:10:33.846Z,12.86
2023-07-18T01:11:35.300Z,12.86
2023-07-18T01:12:36.761Z,12.81
2023-07-18T01:13:38.213Z,12.81
2023-07-18T01:14:41.489Z,12.76
2023-07-18T01:15:44.341Z,12.74
2023-07-18T01:16:45.848Z,12.70
2023-07-18T01:17:47.973Z,12.73
2023-07-18T01:18:49.517Z,12.72
2023-07-18T01:19:50.995Z,12.68
2023-07-18T01:20:53.624Z,12.65
2023-07-18T01:21:55.079Z,12.61
2023-07-18T01:23:02.376Z,12.63
2023-07-18T01:24:04.278Z,12.74
2023-07-18T01:25:05.978Z,12.63
2023-07-18T01:26:07.419Z,12.59
2023-07-18T01:27:08.918Z,12.55
2023-07-18T01:28:11.811Z,12.49
2023-07-18T01:29:13.369Z,12.52
2023-07-18T01:30:16.694Z,12.47
2023-07-18T01:31:18.272Z,12.53
2023-07-18T01:32:20.003Z,12.49
2023-07-18T01:33:21.617Z,12.46
2023-07-18T01:34:23.105Z,12.47
2023-07-18T01:35:27.043Z,12.45
2023-07-18T01:36:29.616Z,12.43
2023-07-18T01:37:31.107Z,12.47
2023-07-18T01:38:32.589Z,12.42
2023-07-18T01:39:34.048Z,12.43
2023-07-18T01:40:35.568Z,12.43
2023-07-18T01:41:37.057Z,12.42
2023-07-18T01:42:38.795Z,12.40
2023-07-18T01:43:40.282Z,12.33
2023-07-18T01:44:41.759Z,12.35
2023-07-18T01:45:43.319Z,12.39
2023-07-18T01:46:44.798Z,12.38
2023-07-18T01:47:47.738Z,12.38
2023-07-18T01:48:49.237Z,12.36
2023-07-18T01:49:50.723Z,12.41
2023-07-18T01:50:52.221Z,12.44
2023-07-18T01:51:53.717Z,12.38
2023-07-18T01:52:55.328Z,12.39
2023-07-18T01:53:56.794Z,12.34
2023-07-18T01:54:59.884Z,12.34
2023-07-18T01:56:01.364Z,12.33
2023-07-18T01:57:03.066Z,12.37
2023-07-18T01:58:04.579Z,12.34
2023-07-18T01:59:06.033Z,12.34
2023-07-18T02:00:12.651Z,12.37
2023-07-18T02:01:14.724Z,12.31
2023-07-18T02:02:16.584Z,12.33
2023-07-18T02:03:18.118Z,12.32
2023-07-18T02:04:19.594Z,12.33
2023-07-18T02:05:24.083Z,12.26
2023-07-18T02:06:26.170Z,12.24
2023-07-18T02:07:28.165Z,12.27
2023-07-18T02:08:29.650Z,12.24
2023-07-18T02:09:31.581Z,12.28
2023-07-18T02:10:33.322Z,12.29
2023-07-18T02:11:34.802Z,12.21
2023-07-18T02:12:36.413Z,12.19
2023-07-18T02:13:38.014Z,12.20
2023-07-18T02:14:39.757Z,12.15
2023-07-18T02:15:41.226Z,12.12
2023-07-18T02:16:42.740Z,12.15
2023-07-18T02:17:45.023Z,12.11
2023-07-18T02:18:46.657Z,12.10
2023-07-18T02:19:48.114Z,12.04
2023-07-18T02:20:49.563Z,12.07
2023-07-18T02:21:51.004Z,12.18
2023-07-18T02:22:52.919Z,12.11
2023-07-18T02:23:54.330Z,12.18
2023-07-18T02:24:56.083Z,12.16
2023-07-18T02:25:57.558Z,12.14
2023-07-18T02:26:59.348Z,12.07
2023-07-18T02:28:00.770Z,12.14
2023-07-18T02:29:02.220Z,12.09
2023-07-18T02:30:04.617Z,12.09
2023-07-18T02:31:06.196Z,12.08
2023-07-18T02:32:07.950Z,12.09
2023-07-18T02:33:10.244Z,12.02
2023-07-18T02:34:11.779Z,12.04
2023-07-18T02:35:19.493Z,12.02
2023-07-18T02:36:23.172Z,12.03
2023-07-18T02:37:26.324Z,12.05
2023-07-18T02:38:27.865Z,12.03
2023-07-18T02:39:31.435Z,11.96
2023-07-18T02:40:32.917Z,11.96
2023-07-18T02:41:40.589Z,11.94
2023-07-18T02:42:42.023Z,11.91
2023-07-18T02:43:43.464Z,11.94
2023-07-18T02:44:46.196Z,11.90
2023-07-18T02:45:50.370Z,11.83
2023-07-18T02:46:52.278Z,11.87
2023-07-18T02:47:53.830Z,11.80
2023-07-18T02:48:55.360Z,11.84
2023-07-18T02:49:56.911Z,11.80
2023-07-18T02:50:58.387Z,11.76
2023-07-18T02:51:59.900Z,11.76
2023-07-18T02:53:01.508Z,11.79
2023-07-18T02:54:03.892Z,11.79
2023-07-18T02:55:05.972Z,11.75
2023-07-18T02:56:07.503Z,11.74
2023-07-18T02:57:08.984Z,11.70
2023-07-18T02:58:10.506Z,11.66
2023-07-18T02:59:11.976Z,11.60
2023-07-18T03:00:26.950Z,11.62
2023-07-18T03:01:28.726Z,11.58
2023-07-18T03:02:31.517Z,11.54
2023-07-18T03:03:35.511Z,11.50
2023-07-18T03:04:37.066Z,11.40
2023-07-18T03:05:38.977Z,11.52
2023-07-18T03:06:40.373Z,11.53
2023-07-18T03:07:41.810Z,11.58
2023-07-18T03:08:43.425Z,11.56
2023-07-18T03:09:45.922Z,11.55
2023-07-18T03:10:48.274Z,11.53
2023-07-18T03:11:53.108Z,11.50
2023-07-18T03:12:55.164Z,11.46
2023-07-18T03:13:56.788Z,11.43
2023-07-18T03:14:58.210Z,11.46
2023-07-18T03:15:59.685Z,11.45
2023-07-18T03:17:01.320Z,11.41
2023-07-18T03:18:03.054Z,11.44
2023-07-18T03:19:04.670Z,11.44
2023-07-18T03:20:17.697Z,11.52
2023-07-18T03:21:19.627Z,11.46
2023-07-18T03:22:21.576Z,11.46
2023-07-18T03:23:23.049Z,11.46
2023-07-18T03:24:24.522Z,11.46
2023-07-18T03:25:26.562Z,11.44
2023-07-18T03:26:28.097Z,11.44
2023-07-18T03:27:29.576Z,11.46
2023-07-18T03:28:31.076Z,11.41
2023-07-18T03:29:32.643Z,11.44
2023-07-18T03:30:34.092Z,11.40
2023-07-18T03:31:35.563Z,11.50
2023-07-18T03:32:38.395Z,11.51
2023-07-18T03:33:39.887Z,11.58
2023-07-18T03:34:41.339Z,11.63
2023-07-18T03:35:42.835Z,11.59
2023-07-18T03:36:44.360Z,11.60
2023-07-18T03:37:45.928Z,11.56
2023-07-18T03:38:47.403Z,11.55
2023-07-18T03:39:48.828Z,11.55
2023-07-18T03:40:51.241Z,11.61
2023-07-18T03:41:53.087Z,11.63
2023-07-18T03:42:54.518Z,11.59
2023-07-18T03:43:56.174Z,11.62
2023-07-18T03:44:57.641Z,11.61
2023-07-18T03:45:59.112Z,11.66
2023-07-18T03:47:11.144Z,11.60
2023-07-18T03:48:21.018Z,11.66
2023-07-18T03:49:22.521Z,11.61
2023-07-18T03:50:24.808Z,11.58
2023-07-18T03:51:28.483Z,11.53
2023-07-18T03:52:32.708Z,11.53
2023-07-18T03:53:34.372Z,11.55
2023-07-18T03:54:35.826Z,11.54
2023-07-18T03:55:37.923Z,11.54
2023-07-18T03:56:39.497Z,11.60
2023-07-18T03:57:41.382Z,11.60
2023-07-18T03:58:43.131Z,11.66
2023-07-18T03:59:44.677Z,11.70
2023-07-18T04:00:46.340Z,11.70
2023-07-18T04:01:48.244Z,11.69
2023-07-18T04:02:50.103Z,11.72
2023-07-18T04:03:51.659Z,11.77
2023-07-18T04:04:53.596Z,11.80
2023-07-18T04:05:54.953Z,11.81
2023-07-18T04:06:56.542Z,11.79
2023-07-18T04:07:58.115Z,11.76
2023-07-18T04:08:59.820Z,11.77
2023-07-18T04:10:01.382Z,11.80
2023-07-18T04:11:02.900Z,11.82
2023-07-18T04:12:05.082Z,11.83
2023-07-18T04:13:06.541Z,11.82
2023-07-18T04:14:08.010Z,11.81
2023-07-18T04:15:11.046Z,11.84
2023-07-18T04:16:13.122Z,11.85
2023-07-18T04:17:14.941Z,11.93
2023-07-18T04:18:16.525Z,11.96
2023-07-18T04:19:17.966Z,11.97
2023-07-18T04:20:21.000Z,12.00
2023-07-18T04:21:22.769Z,12.01
2023-07-18T04:22:24.257Z,12.09
2023-07-18T04:23:25.853Z,12.05
2023-07-18T04:24:27.343Z,12.08
2023-07-18T04:25:35.962Z,12.12
2023-07-18T04:26:37.507Z,12.35
2023-07-18T04:27:38.990Z,12.71
2023-07-18T04:28:40.881Z,13.22
2023-07-18T04:29:42.250Z,13.38
2023-07-18T04:30:44.043Z,13.63
2023-07-18T04:31:46.249Z,13.87
2023-07-18T04:32:48.149Z,13.93
2023-07-18T04:33:49.805Z,13.98
2023-07-18T04:34:51.361Z,13.96
2023-07-18T04:35:52.863Z,14.13
2023-07-18T04:36:54.353Z,14.24
2023-07-18T04:37:55.876Z,14.27
2023-07-18T04:38:57.387Z,14.52
2023-07-18T04:39:58.853Z,14.63
2023-07-18T04:41:00.857Z,14.56
2023-07-18T04:42:02.772Z,14.55
2023-07-18T04:43:04.142Z,14.76
2023-07-18T04:44:05.666Z,14.59
2023-07-18T04:45:07.405Z,14.64
2023-07-18T04:46:09.417Z,14.43
2023-07-18T04:47:10.916Z,14.46
2023-07-18T04:48:17.587Z,14.24
2023-07-18T04:49:20.133Z,14.30
2023-07-18T04:50:21.899Z,14.21
2023-07-18T04:51:25.555Z,14.19
2023-07-18T04:52:27.150Z,14.08
2023-07-18T04:53:29.940Z,13.88
2023-07-18T04:54:31.605Z,13.92
2023-07-18T04:55:33.166Z,13.91
2023-07-18T04:56:34.710Z,13.92
2023-07-18T04:57:36.258Z,13.96
2023-07-18T04:58:37.732Z,14.10
2023-07-18T04:59:39.285Z,14.04
2023-07-18T05:00:40.725Z,14.08
2023-07-18T05:01:42.353Z,14.13
2023-07-18T05:02:43.944Z,14.18
2023-07-18T05:03:57.360Z,14.29
2023-07-18T05:04:59.795Z,14.42
2023-07-18T05:06:01.223Z,14.45
2023-07-18T05:07:02.754Z,14.44
2023-07-18T05:08:04.695Z,14.51
2023-07-18T05:09:06.171Z,14.59
2023-07-18T05:10:08.694Z,14.70
2023-07-18T05:11:10.158Z,14.86
2023-07-18T05:12:11.621Z,14.86
2023-07-18T05:13:13.144Z,14.61
2023-07-18T05:14:14.621Z,14.95
2023-07-18T05:15:16.117Z,15.02
2023-07-18T05:16:17.755Z,15.27
2023-07-18T05:17:19.448Z,15.43
2023-07-18T05:18:21.335Z,15.55
2023-07-18T05:19:22.698Z,15.54
2023-07-18T05:20:24.134Z,15.47
2023-07-18T05:21:25.650Z,15.66
2023-07-18T05:22:27.225Z,15.97
2023-07-18T05:23:28.734Z,16.04
2023-07-18T05:24:30.170Z,15.93
2023-07-18T05:25:31.610Z,15.89
2023-07-18T05:26:33.070Z,15.96
2023-07-18T05:27:35.036Z,16.04
2023-07-18T05:28:36.591Z,15.80
2023-07-18T05:29:38.271Z,15.74
2023-07-18T05:30:39.706Z,15.69
2023-07-18T05:31:41.277Z,15.59
2023-07-18T05:32:43.441Z,15.55
2023-07-18T05:33:44.974Z,15.64
2023-07-18T05:34:46.420Z,15.88
2023-07-18T05:35:48.495Z,15.78
2023-07-18T05:36:50.540Z,15.90
2023-07-18T05:37:51.994Z,15.80
2023-07-18T05:38:53.447Z,15.89
2023-07-18T05:39:54.916Z,15.89
2023-07-18T05:40:56.354Z,15.98
2023-07-18T05:41:58.540Z,15.87
2023-07-18T05:43:00.082Z,15.93
2023-07-18T05:44:01.566Z,16.04
2023-07-18T05:45:03.143Z,16.05
2023-07-18T05:46:04.637Z,16.04
2023-07-18T05:47:06.359Z,16.07
2023-07-18T05:48:08.021Z,16.03
2023-07-18T05:49:09.572Z,16.19
2023-07-18T05:50:11.537Z,16.17
2023-07-18T05:51:12.990Z,15.98
2023-07-18T05:52:14.472Z,15.96
2023-07-18T05:53:15.982Z,15.93
2023-07-18T05:54:17.452Z,16.06
2023-07-18T05:55:19.203Z,15.98
2023-07-18T05:56:20.750Z,15.80
2023-07-18T05:57:22.283Z,15.93
2023-07-18T05:58:23.727Z,15.87
2023-07-18T05:59:26.405Z,16.00
2023-07-18T06:00:27.867Z,16.11
2023-07-18T06:01:29.357Z,16.04
2023-07-18T06:02:30.913Z,15.95
2023-07-18T06:03:32.507Z,15.93
2023-07-18T06:04:36.322Z,15.89
2023-07-18T06:05:37.934Z,15.83
2023-07-18T06:06:39.962Z,16.00
2023-07-18T06:07:41.872Z,16.02
2023-07-18T06:08:43.562Z,16.07
2023-07-18T06:09:45.155Z,16.13
2023-07-18T06:10:46.628Z,15.97
2023-07-18T06:11:48.095Z,15.97
2023-07-18T06:12:50.729Z,15.86
2023-07-18T06:13:52.551Z,15.81
2023-07-18T06:14:55.939Z,15.88
2023-07-18T06:15:57.487Z,15.91
2023-07-18T06:16:59.217Z,15.98
2023-07-18T06:18:00.817Z,15.80
2023-07-18T06:19:02.501Z,15.75
2023-07-18T06:20:09.769Z,15.84
2023-07-18T06:21:11.274Z,15.83
2023-07-18T06:22:13.372Z,15.91
2023-07-18T06:23:15.455Z,15.86
2023-07-18T06:24:19.301Z,15.99
2023-07-18T06:25:22.134Z,16.04
2023-07-18T06:26:23.923Z,16.19
2023-07-18T06:27:27.817Z,16.28
2023-07-18T06:28:29.326Z,16.33
2023-07-18T06:29:32.162Z,16.25
2023-07-18T06:30:33.848Z,16.33
2023-07-18T06:31:36.551Z,16.33
2023-07-18T06:32:40.220Z,16.44
2023-07-18T06:33:42.273Z,16.44
2023-07-18T06:34:44.121Z,16.38
2023-07-18T06:35:52.824Z,16.45
2023-07-18T06:36:54.391Z,16.45
2023-07-18T06:37:55.984Z,16.55
2023-07-18T06:38:57.539Z,16.52
2023-07-18T06:39:59.054Z,16.55
2023-07-18T06:41:00.975Z,16.62
2023-07-18T06:42:02.608Z,16.66
2023-07-18T06:43:04.344Z,16.72
2023-07-18T06:44:06.706Z,16.76
2023-07-18T06:45:08.619Z,16.75
2023-07-18T06:46:09.995Z,16.78
2023-07-18T06:47:11.532Z,16.74
2023-07-18T06:48:14.012Z,16.86
2023-07-18T06:49:16.602Z,16.94
2023-07-18T06:50:18.119Z,16.96
2023-07-18T06:51:19.901Z,16.91
2023-07-18T06:52:22.005Z,16.95
2023-07-18T06:53:23.858Z,16.99
2023-07-18T06:54:25.277Z,17.01
2023-07-18T06:55:26.779Z,17.10
2023-07-18T06:56:28.252Z,17.17
2023-07-18T06:57:29.757Z,17.22
2023-07-18T06:58:31.229Z,17.22
2023-07-18T06:59:32.688Z,17.30
2023-07-18T07:00:34.250Z,17.40
2023-07-18T07:01:36.051Z,17.42
2023-07-18T07:02:37.559Z,17.45
2023-07-18T07:03:39.739Z,17.29
2023-07-18T07:04:41.293Z,17.27
2023-07-18T07:05:43.955Z,17.32
2023-07-18T07:06:45.484Z,17.31
2023-07-18T07:07:48.270Z,17.34
2023-07-18T07:08:49.766Z,17.31
2023-07-18T07:09:51.223Z,17.33
2023-07-18T07:11:03.413Z,17.33
2023-07-18T07:12:05.502Z,17.20
2023-07-18T07:13:07.892Z,17.18
2023-07-18T07:14:09.644Z,17.22
2023-07-18T07:15:11.669Z,17.31
2023-07-18T07:16:13.248Z,17.27
2023-07-18T07:17:14.820Z,17.34
2023-07-18T07:18:16.312Z,17.27
2023-07-18T07:19:18.226Z,17.57
2023-07-18T07:20:20.509Z,17.60
2023-07-18T07:21:22.162Z,17.45
2023-07-18T07:22:23.922Z,17.43
2023-07-18T07:23:25.678Z,17.44
2023-07-18T07:24:27.438Z,17.37
2023-07-18T07:25:31.159Z,17.37
2023-07-18T07:26:33.212Z,17.39
2023-07-18T07:27:34.642Z,17.39
2023-07-18T07:28:36.673Z,17.48
2023-07-18T07:29:41.253Z,17.63
2023-07-18T07:30:42.740Z,17.75
2023-07-18T07:31:44.335Z,17.86
2023-07-18T07:32:48.833Z,17.92
2023-07-18T07:33:50.473Z,17.91
2023-07-18T07:34:51.938Z,17.99
2023-07-18T07:35:53.406Z,17.99
2023-07-18T07:36:54.849Z,18.01
2023-07-18T07:37:56.353Z,18.11
2023-07-18T07:38:57.832Z,18.05
2023-07-18T07:39:59.375Z,18.15
2023-07-18T07:41:00.881Z,18.19
2023-07-18T07:42:02.440Z,18.23
2023-07-18T07:43:03.953Z,18.29
2023-07-18T07:44:05.531Z,18.36
2023-07-18T07:45:08.208Z,18.40
2023-07-18T07:46:09.795Z,18.33
2023-07-18T07:47:11.410Z,18.40
2023-07-18T07:48:12.930Z,18.49
2023-07-18T07:49:14.447Z,18.62
2023-07-18T07:50:16.206Z,18.73
2023-07-18T07:51:18.239Z,18.72
2023-07-18T07:52:20.129Z,18.75
2023-07-18T07:53:21.623Z,18.86
2023-07-18T07:54:23.104Z,18.79
2023-07-18T07:55:24.765Z,18.67
2023-07-18T07:56:26.459Z,18.53
2023-07-18T07:57:29.227Z,18.39
2023-07-18T07:58:30.777Z,18.54
2023-07-18T07:59:32.267Z,18.66
2023-07-18T08:00:33.752Z,18.85
2023-07-18T08:01:35.259Z,18.97
2023-07-18T08:02:36.855Z,19.07
2023-07-18T08:03:39.064Z,19.07
2023-07-18T08:04:42.766Z,19.33
2023-07-18T08:05:44.495Z,19.50
2023-07-18T08:06:46.662Z,19.52
2023-07-18T08:07:48.140Z,19.42
2023-07-18T08:08:49.616Z,19.35
2023-07-18T08:09:51.239Z,19.23
2023-07-18T08:10:53.351Z,19.20
2023-07-18T08:11:54.791Z,19.05
2023-07-18T08:12:56.292Z,19.06
2023-07-18T08:13:57.842Z,19.13
2023-07-18T08:14:59.367Z,19.33
2023-07-18T08:16:00.942Z,19.50
2023-07-18T08:17:02.999Z,19.63
2023-07-18T08:18:04.650Z,19.69
2023-07-18T08:19:06.459Z,19.73
2023-07-18T08:20:09.401Z,19.60
2023-07-18T08:21:10.883Z,19.73
2023-07-18T08:22:12.378Z,19.56
2023-07-18T08:23:15.967Z,19.46
2023-07-18T08:24:18.224Z,19.43
2023-07-18T08:25:19.803Z,19.34
2023-07-18T08:26:21.235Z,19.43
2023-07-18T08:27:22.770Z,19.45
2023-07-18T08:28:24.258Z,19.42
2023-07-18T08:29:28.237Z,19.46
2023-07-18T08:30:29.792Z,19.50
2023-07-18T08:31:31.286Z,19.52
2023-07-18T08:32:32.841Z,19.36
2023-07-18T08:33:34.361Z,19.27
2023-07-18T08:34:36.892Z,19.23
2023-07-18T08:35:39.511Z,19.44
2023-07-18T08:36:41.001Z,19.40
2023-07-18T08:37:42.591Z,19.35
2023-07-18T08:38:51.226Z,19.25
2023-07-18T08:39:52.873Z,19.28
2023-07-18T08:40:54.332Z,19.41
2023-07-18T08:41:58.985Z,19.55
2023-07-18T08:43:00.690Z,19.60
2023-07-18T08:44:04.262Z,19.69
2023-07-18T08:45:09.896Z,19.79
2023-07-18T08:46:14.637Z,19.87
2023-07-18T08:47:17.253Z,19.99
2023-07-18T08:48:18.772Z,20.18
2023-07-18T08:49:22.426Z,20.20
2023-07-18T08:50:26.224Z,20.23
2023-07-18T08:51:29.327Z,20.08
2023-07-18T08:52:30.936Z,20.10
2023-07-18T08:53:32.659Z,19.94
2023-07-18T08:54:35.482Z,20.02
2023-07-18T08:55:37.704Z,20.10
2023-07-18T08:56:44.911Z,20.14
2023-07-18T08:57:47.347Z,20.12
2023-07-18T08:58:48.898Z,20.16
2023-07-18T08:59:50.652Z,20.25
2023-07-18T09:00:52.078Z,20.20
2023-07-18T09:01:54.417Z,20.21
2023-07-18T09:02:56.163Z,20.18
2023-07-18T09:03:57.706Z,19.98
2023-07-18T09:04:59.232Z,20.07
2023-07-18T09:06:21.162Z,20.12
2023-07-18T09:07:28.108Z,20.20
2023-07-18T09:08:40.854Z,20.33
2023-07-18T09:09:48.556Z,20.50
2023-07-18T09:11:03.335Z,20.52
2023-07-18T09:12:06.201Z,20.54
2023-07-18T09:13:09.068Z,20.42
2023-07-18T09:14:23.059Z,20.53
2023-07-18T09:15:24.594Z,20.63
2023-07-18T09:16:26.224Z,20.48
2023-07-18T09:17:28.463Z,20.33
2023-07-18T09:18:29.992Z,20.35
2023-07-18T09:19:41.781Z,20.49
2023-07-18T09:20:43.242Z,20.58
2023-07-18T09:21:44.829Z,20.58
2023-07-18T09:22:46.369Z,20.64
2023-07-18T09:23:48.604Z,20.75
2023-07-18T09:24:50.075Z,20.75
2023-07-18T09:25:51.604Z,20.89
2023-07-18T09:26:56.564Z,20.88
2023-07-18T09:27:59.284Z,21.01
2023-07-18T09:29:02.216Z,21.00
2023-07-18T09:30:04.026Z,21.12
2023-07-18T09:31:21.537Z,21.09
2023-07-18T09:32:24.669Z,21.03
2023-07-18T09:33:26.458Z,20.94
2023-07-18T09:34:28.640Z,21.01
2023-07-18T09:35:30.113Z,21.08
2023-07-18T09:36:31.941Z,21.08
2023-07-18T09:37:46.680Z,21.00
2023-07-18T09:38:49.726Z,21.07
2023-07-18T09:39:52.159Z,21.02
2023-07-18T09:40:55.601Z,20.93
2023-07-18T09:41:57.790Z,21.03
2023-07-18T09:43:01.523Z,21.03
2023-07-18T09:44:22.332Z,21.11
2023-07-18T09:45:28.642Z,21.05
2023-07-18T09:46:30.590Z,21.14
2023-07-18T09:47:34.131Z,21.26
2023-07-18T09:48:44.688Z,21.24
2023-07-18T09:49:47.361Z,21.21
2023-07-18T09:50:52.200Z,21.08
2023-07-18T09:52:05.442Z,21.28
2023-07-18T09:53:12.261Z,21.35
2023-07-18T09:54:15.791Z,21.38
2023-07-18T09:55:28.315Z,21.62
2023-07-18T09:56:33.977Z,21.68
2023-07-18T09:57:38.470Z,21.62
2023-07-18T09:58:40.461Z,21.68
2023-07-18T09:59:41.995Z,21.87
2023-07-18T10:00:46.225Z,21.84
2023-07-18T10:01:55.380Z,21.54
2023-07-18T10:02:57.507Z,21.36
2023-07-18T10:04:00.201Z,21.64
2023-07-18T10:05:06.418Z,21.67
2023-07-18T10:06:15.950Z,21.53
2023-07-18T10:07:18.420Z,21.53
2023-07-18T10:08:20.444Z,21.62
2023-07-18T10:09:24.377Z,21.81
2023-07-18T10:10:26.230Z,22.04
2023-07-18T10:11:27.931Z,22.13
2023-07-18T10:12:29.429Z,22.10
2023-07-18T10:13:40.809Z,22.26
2023-07-18T10:14:58.143Z,22.57
2023-07-18T10:16:14.874Z,22.77
2023-07-18T10:17:48.651Z,22.68
2023-07-18T10:18:51.971Z,22.74
2023-07-18T10:19:53.443Z,22.91
2023-07-18T10:21:01.787Z,22.95
2023-07-18T10:22:03.723Z,22.81
2023-07-18T10:23:06.316Z,22.40
2023-07-18T10:24:24.644Z,21.98
2023-07-18T10:25:31.080Z,22.08
2023-07-18T10:26:33.999Z,22.35
2023-07-18T10:27:40.825Z,22.57
2023-07-18T10:28:46.972Z,22.60
2023-07-18T10:30:09.488Z,22.34
2023-07-18T10:31:31.129Z,22.76
2023-07-18T10:32:34.174Z,22.79
2023-07-18T10:33:35.759Z,22.71
2023-07-18T10:34:40.628Z,22.88
2023-07-18T10:35:42.979Z,22.78
2023-07-18T10:36:58.927Z,23.04
2023-07-18T10:38:04.318Z,23.23
2023-07-18T10:39:16.042Z,23.45
2023-07-18T10:40:37.308Z,23.65
2023-07-18T10:41:46.568Z,23.52
2023-07-18T10:42:48.051Z,23.42
2023-07-18T10:43:49.496Z,23.48
2023-07-18T10:45:01.914Z,23.59
2023-07-18T10:46:08.222Z,23.70
2023-07-18T10:47:13.907Z,23.79
2023-07-18T10:48:21.849Z,23.81
2023-07-18T10:49:32.649Z,23.39
2023-07-18T10:50:35.267Z,23.79
2023-07-18T10:51:36.773Z,23.64
2023-07-18T10:52:38.512Z,23.62
2023-07-18T10:53:41.910Z,23.92
2023-07-18T10:54:56.417Z,23.50
2023-07-18T10:55:58.932Z,23.81
2023-07-18T10:57:01.068Z,24.10
2023-07-18T10:58:02.564Z,24.09
2023-07-18T10:59:04.171Z,23.70
2023-07-18T11:00:07.670Z,24.23
2023-07-18T11:01:10.189Z,24.31
2023-07-18T11:02:12.810Z,24.24
2023-07-18T11:03:24.710Z,24.66
2023-07-18T11:04:26.533Z,24.46
2023-07-18T11:05:28.167Z,24.00
2023-07-18T11:06:29.737Z,23.71
2023-07-18T11:07:36.144Z,23.54
2023-07-18T11:08:38.784Z,23.36
2023-07-18T11:09:42.417Z,23.42
2023-07-18T11:10:43.942Z,23.33
2023-07-18T11:11:45.434Z,23.19
2023-07-18T11:12:46.916Z,23.46
2023-07-18T11:13:48.393Z,23.54
2023-07-18T11:14:49.824Z,23.50
2023-07-18T11:15:51.318Z,23.40
2023-07-18T11:16:54.319Z,23.36
2023-07-18T11:17:56.052Z,23.63
2023-07-18T11:19:00.434Z,23.78
2023-07-18T11:20:02.947Z,24.22
2023-07-18T11:21:08.198Z,23.99
2023-07-18T11:22:14.400Z,24.57
2023-07-18T11:23:16.096Z,25.21
2023-07-18T11:24:17.881Z,25.44
2023-07-18T11:25:19.333Z,25.42
2023-07-18T11:26:21.086Z,25.70
2023-07-18T11:27:23.180Z,25.68
2023-07-18T11:28:33.619Z,25.68
2023-07-18T11:29:35.073Z,25.67
2023-07-18T11:30:36.785Z,25.67
2023-07-18T11:31:42.828Z,25.11
2023-07-18T11:32:46.909Z,25.67
2023-07-18T11:33:53.472Z,26.05
2023-07-18T11:34:59.449Z,26.25
2023-07-18T11:36:01.260Z,26.43
2023-07-18T11:37:02.795Z,26.36
2023-07-18T11:38:04.322Z,26.37
2023-07-18T11:39:21.256Z,26.34
2023-07-18T11:40:26.967Z,25.37
2023-07-18T11:41:41.830Z,25.00
2023-07-18T11:42:51.184Z,25.20
2023-07-18T11:43:55.581Z,24.98
2023-07-18T11:44:57.050Z,25.51
2023-07-18T11:45:58.542Z,24.88
2023-07-18T11:47:00.001Z,25.44
2023-07-18T11:48:01.871Z,25.76
2023-07-18T11:49:04.428Z,25.90
2023-07-18T11:50:10.894Z,25.68
2023-07-18T11:51:12.816Z,26.34
2023-07-18T11:52:19.146Z,26.53
2023-07-18T11:53:27.646Z,25.89
2023-07-18T11:54:29.361Z,25.87
2023-07-18T11:55:32.221Z,26.43
2023-07-18T11:56:35.768Z,26.98
2023-07-18T11:57:37.619Z,27.42
2023-07-18T11:58:39.529Z,27.37
2023-07-18T11:59:41.016Z,27.20
2023-07-18T12:00:42.485Z,26.90
2023-07-18T12:01:44.482Z,27.23
2023-07-18T12:02:46.441Z,27.30
2023-07-18T12:03:51.605Z,27.18
2023-07-18T12:04:53.786Z,26.13
2023-07-18T12:05:55.336Z,26.13
2023-07-18T12:06:58.529Z,26.41
2023-07-18T12:08:00.069Z,26.47
2023-07-18T12:09:01.566Z,26.14
2023-07-18T12:10:08.010Z,26.30
2023-07-18T12:11:11.157Z,26.22
2023-07-18T12:12:12.693Z,26.47
2023-07-18T12:13:14.148Z,27.35
2023-07-18T12:14:15.760Z,26.46
2023-07-18T12:15:17.222Z,25.41
2023-07-18T12:16:18.735Z,25.21
2023-07-18T12:17:21.022Z,25.28
2023-07-18T12:18:22.564Z,26.06
2023-07-18T12:19:24.131Z,26.51
2023-07-18T12:20:27.050Z,26.45
2023-07-18T12:21:28.611Z,26.79
2023-07-18T12:22:30.342Z,26.50
2023-07-18T12:23:31.864Z,25.93
2023-07-18T12:24:33.669Z,25.98
2023-07-18T12:25:35.127Z,26.60
2023-07-18T12:26:36.727Z,26.45
2023-07-18T12:27:38.214Z,26.72
2023-07-18T12:28:39.726Z,26.88
2023-07-18T12:29:41.283Z,26.21
2023-07-18T12:30:43.131Z,25.87
2023-07-18T12:31:50.654Z,26.22
2023-07-18T12:32:52.379Z,26.42
2023-07-18T12:33:53.906Z,25.95
2023-07-18T12:34:55.463Z,25.76
2023-07-18T12:35:58.299Z,25.69
2023-07-18T12:37:00.452Z,25.52
2023-07-18T12:38:02.461Z,25.42
2023-07-18T12:39:04.122Z,25.36
2023-07-18T12:40:06.650Z,25.32
2023-07-18T12:41:09.309Z,25.70
2023-07-18T12:42:10.811Z,26.00
2023-07-18T12:43:12.304Z,26.00
2023-07-18T12:44:24.335Z,25.70
2023-07-18T12:45:29.966Z,25.64
2023-07-18T12:46:32.058Z,26.64
2023-07-18T12:47:33.552Z,26.94
2023-07-18T12:48:35.087Z,26.57
2023-07-18T12:50:41.716Z,26.21
2023-07-18T12:51:43.256Z,26.00
2023-07-18T12:52:44.753Z,26.03
2023-07-18T12:53:46.223Z,26.40
2023-07-18T12:54:47.739Z,26.47
2023-07-18T12:55:49.262Z,25.85
2023-07-18T12:56:50.842Z,25.77
2023-07-18T12:57:52.452Z,25.61
2023-07-18T12:58:53.900Z,25.28
2023-07-18T12:59:55.511Z,25.23
2023-07-18T13:00:56.991Z,25.10
2023-07-18T13:01:59.198Z,24.34
2023-07-18T13:03:00.756Z,24.17
2023-07-18T13:04:04.381Z,24.29
2023-07-18T13:05:05.901Z,25.35
2023-07-18T13:06:09.220Z,25.63
2023-07-18T13:07:10.755Z,26.17
2023-07-18T13:08:12.347Z,26.69
2023-07-18T13:09:13.788Z,26.10
2023-07-18T13:10:15.284Z,25.79
2023-07-18T13:11:16.785Z,25.49
2023-07-18T13:12:18.290Z,25.33
2023-07-18T13:13:19.768Z,25.48
2023-07-18T13:14:21.859Z,26.40
2023-07-18T13:15:23.384Z,26.55
2023-07-18T13:16:24.891Z,26.65
2023-07-18T13:17:26.456Z,26.87
2023-07-18T13:18:27.990Z,27.21
2023-07-18T13:19:29.593Z,26.38
2023-07-18T13:20:31.101Z,25.80
2023-07-18T13:21:33.104Z,25.31
2023-07-18T13:22:34.623Z,25.07
2023-07-18T13:23:36.119Z,25.70
2023-07-18T13:24:37.587Z,25.90
2023-07-18T13:25:39.116Z,25.17
2023-07-18T13:26:42.192Z,25.70
2023-07-18T13:27:44.263Z,26.20
2023-07-18T13:28:45.732Z,26.76
2023-07-18T13:29:47.265Z,26.78
2023-07-18T13:30:48.764Z,26.46